Time;durP1;ratioP1;P1;durP2;ratioP2;P2;SDS_P1;SDS_P2;PMS_P1;PMS_P2;Temp;Humidity;BMP_temperature;BMP_pressure;BME280_temperature;BME280_humidity;BME280_pressure;Samples;Min_cycle;Max_cycle;Signal;HPM_P1;HPM_P2
2022/05/26 00:00:18;;;;;;;451.80;429.90;;;17.00;99.90;;;17.26;72.26;100031.66;4989745;28;20240;-63
2022/05/26 00:02:47;;;;;;;449.40;427.88;;;17.00;99.90;;;17.26;71.39;100029.88;4958390;28;20217;-62
2022/05/26 00:05:15;;;;;;;409.73;391.30;;;17.00;99.90;;;17.32;71.31;100039.53;4968502;28;20694;-63
2022/05/26 00:07:43;;;;;;;473.52;451.15;;;17.00;99.90;;;17.29;71.13;100034.25;4954834;28;20243;-62
2022/05/26 00:10:11;;;;;;;481.02;459.85;;;17.00;99.90;;;17.22;71.66;100038.00;4958263;28;20233;-63
2022/05/26 00:12:39;;;;;;;471.23;449.33;;;17.00;99.90;;;17.25;71.33;100048.63;4970502;28;20208;-63
2022/05/26 00:15:08;;;;;;;514.97;490.17;;;17.00;99.90;;;17.22;72.01;100052.25;4953137;28;20200;-63
2022/05/26 00:17:36;;;;;;;482.60;460.77;;;17.00;99.90;;;17.20;72.76;100063.88;4963583;28;20220;-62
2022/05/26 00:20:06;;;;;;;428.63;409.48;;;17.00;99.90;;;17.11;72.84;100066.78;4959804;28;20682;-63
2022/05/26 00:22:35;;;;;;;421.42;402.20;;;16.90;99.90;;;17.15;72.19;100072.00;4935277;28;20228;-62
2022/05/26 00:25:04;;;;;;;394.67;376.70;;;16.90;99.90;;;17.19;72.02;100070.16;4939711;28;20672;-63
2022/05/26 00:27:32;;;;;;;377.88;360.55;;;16.90;99.90;;;17.18;72.15;100076.41;4990436;28;20203;-63
2022/05/26 00:30:00;;;;;;;378.30;361.25;;;16.90;99.90;;;17.06;73.21;100085.59;4976545;28;20245;-63
2022/05/26 00:32:29;;;;;;;381.88;364.15;;;16.90;99.90;;;17.11;72.60;100077.47;4954603;28;20200;-63
2022/05/26 00:34:57;;;;;;;386.50;368.63;;;16.80;99.90;;;17.04;72.99;100091.88;4982286;28;20303;-63
2022/05/26 00:37:25;;;;;;;376.00;357.13;;;16.80;99.90;;;16.94;73.60;100096.53;4954928;28;20212;-63
2022/05/26 00:39:52;;;;;;;386.40;367.63;;;16.80;99.90;;;16.99;73.65;100104.47;4950013;28;20256;-63
2022/05/26 00:42:20;;;;;;;389.95;371.33;;;16.80;99.90;;;16.92;74.28;100117.94;4996117;28;20207;-63
2022/05/26 00:44:50;;;;;;;396.02;377.45;;;16.70;99.90;;;16.85;74.88;100118.97;4982014;28;20217;-63
2022/05/26 00:47:27;;;;;;;400.15;381.27;;;16.70;99.90;;;16.86;75.10;100134.06;4978790;28;20236;-63
2022/05/26 00:50:06;;;;;;;399.08;380.88;;;16.70;99.90;;;16.80;75.66;100136.00;4961938;28;20224;-63
2022/05/26 00:52:45;;;;;;;390.88;372.58;;;16.70;99.90;;;16.75;76.27;100146.78;4983296;28;20197;-63
2022/05/26 00:55:25;;;;;;;399.38;381.17;;;16.70;99.90;;;16.71;76.42;100155.75;4983938;28;20208;-63
2022/05/26 00:58:10;;;;;;;411.92;393.15;;;16.60;99.90;;;16.57;77.45;100163.13;4970640;28;20215;-63
2022/05/26 01:00:39;;;;;;;408.73;390.20;;;16.60;99.90;;;16.53;77.99;100166.78;4975321;28;20225;-62
2022/05/26 01:03:27;;;;;;;401.55;382.55;;;16.50;99.90;;;16.41;79.20;100180.34;4952537;28;20587;-63
2022/05/26 01:06:07;;;;;;;402.38;384.00;;;16.50;99.90;;;16.42;78.66;100190.13;4982081;28;20204;-63
2022/05/26 01:08:59;;;;;;;399.58;381.60;;;16.40;99.90;;;16.47;79.12;100213.16;4974221;28;20212;-63
2022/05/26 01:11:32;;;;;;;399.73;381.50;;;16.30;99.90;;;16.42;78.94;100211.47;4987305;28;20225;-63
2022/05/26 01:14:33;;;;;;;403.25;384.95;;;16.30;99.90;;;16.32;80.23;100219.66;5010900;28;20228;-63
2022/05/26 01:17:42;;;;;;;412.65;393.73;;;16.30;99.90;;;16.30;80.22;100232.13;4943641;28;20243;-63
2022/05/26 01:20:41;;;;;;;393.95;376.42;;;16.30;99.90;;;16.28;79.62;100231.28;5001240;28;20225;-63
2022/05/26 01:23:40;;;;;;;401.90;384.63;;;16.20;99.90;;;16.33;79.50;100239.22;4992184;28;20201;-63
2022/05/26 01:26:23;;;;;;;437.55;417.40;;;16.20;99.90;;;16.30;79.86;100241.94;4971521;28;20546;-63
2022/05/26 01:29:34;;;;;;;440.23;418.25;;;16.20;99.90;;;16.28;79.37;100241.97;4953513;28;20212;-63
2022/05/26 01:33:06;;;;;;;431.10;411.48;;;16.20;99.90;;;16.19;80.01;100241.22;4999189;28;20685;-62
2022/05/26 01:35:52;;;;;;;420.60;402.77;;;16.10;99.90;;;16.11;80.73;100244.03;4954899;28;20212;-62
2022/05/26 01:38:59;;;;;;;435.75;416.23;;;16.00;99.90;;;16.10;80.30;100255.59;4972771;28;20195;-63
2022/05/26 01:41:48;;;;;;;436.52;416.50;;;16.00;99.90;;;16.09;80.36;100247.63;5005915;28;20225;-62
2022/05/26 01:44:40;;;;;;;435.98;415.95;;;16.00;99.90;;;16.08;80.10;100251.19;5006508;28;20673;-62
2022/05/26 01:47:37;;;;;;;465.55;444.25;;;15.90;99.90;;;15.99;80.45;100250.44;5005727;28;20209;-63
2022/05/26 01:50:38;;;;;;;446.95;426.25;;;15.90;99.90;;;15.97;80.90;100270.03;5002518;28;20228;-63
2022/05/26 01:53:51;;;;;;;492.25;467.63;;;15.90;99.90;;;15.80;81.57;100272.97;4965309;28;20223;-63
2022/05/26 01:56:28;;;;;;;467.08;445.45;;;15.80;99.90;;;15.68;82.11;100273.16;4937107;28;20213;-63
2022/05/26 01:59:34;;;;;;;535.83;510.20;;;15.70;99.90;;;15.74;82.56;100285.50;4979969;28;20204;-63
2022/05/26 02:02:11;;;;;;;533.65;508.25;;;15.60;99.90;;;15.65;82.86;100286.53;4948567;28;20223;-62
2022/05/26 02:04:46;;;;;;;545.92;519.75;;;15.50;99.90;;;15.66;82.35;100297.16;4945064;28;20205;-62
2022/05/26 02:07:50;;;;;;;540.72;516.08;;;15.50;99.90;;;15.53;83.37;100305.28;4957616;28;20208;-62
2022/05/26 02:10:47;;;;;;;545.83;519.83;;;15.50;99.90;;;15.50;83.38;100314.19;4941627;28;20235;-62
2022/05/26 02:13:21;;;;;;;514.38;490.45;;;15.40;99.90;;;15.53;83.89;100322.16;4966661;28;20209;-62
2022/05/26 02:16:03;;;;;;;516.83;492.13;;;15.40;99.90;;;15.43;84.42;100322.28;4970094;28;20204;-62
2022/05/26 02:18:53;;;;;;;523.63;499.38;;;15.40;99.90;;;15.43;84.88;100333.81;4939963;28;20376;-63
2022/05/26 02:21:44;;;;;;;538.97;512.80;;;15.40;99.90;;;15.53;84.06;100345.25;4984810;28;20224;-62
2022/05/26 02:24:27;;;;;;;574.78;546.50;;;15.40;99.90;;;15.38;84.49;100344.53;4983005;28;20215;-62
2022/05/26 02:26:55;;;;;;;581.10;552.85;;;15.30;99.90;;;15.35;84.88;100343.69;4982473;28;20216;-62
2022/05/26 02:32:15;;;;;;;592.58;564.10;;;15.30;99.90;;;15.33;85.12;100362.38;4984597;28;20679;-62
2022/05/26 02:34:44;;;;;;;604.70;575.13;;;15.20;99.90;;;15.29;85.94;100368.63;4971276;28;20228;-62
2022/05/26 02:37:14;;;;;;;570.92;543.45;;;15.20;99.90;;;15.22;85.60;100369.59;4970010;28;20215;-63
2022/05/26 02:39:42;;;;;;;524.22;499.88;;;15.20;99.90;;;15.23;85.90;100376.69;4960042;28;20459;-62
2022/05/26 02:42:11;;;;;;;512.28;487.98;;;15.10;99.90;;;15.14;86.52;100375.91;4956129;28;20208;-62
2022/05/26 02:44:41;;;;;;;496.40;473.63;;;15.10;99.90;;;15.12;87.02;100388.38;4981945;28;20220;-62
2022/05/26 02:47:14;;;;;;;505.80;481.63;;;15.00;99.90;;;15.11;87.15;100395.47;4943938;28;20205;-63
2022/05/26 02:50:15;;;;;;;498.05;475.20;;;14.90;99.90;;;15.14;87.06;100403.44;4982959;28;20252;-62
2022/05/26 02:53:09;;;;;;;513.30;488.17;;;14.90;99.90;;;14.90;88.84;100409.00;4952599;28;20300;-62
2022/05/26 02:56:02;;;;;;;522.83;498.63;;;14.90;99.90;;;14.96;88.56;100422.25;4937437;28;20229;-63
2022/05/26 02:59:05;;;;;;;524.85;499.92;;;14.90;99.90;;;14.85;89.47;100422.34;4953913;28;20212;-62
2022/05/26 03:01:56;;;;;;;544.17;518.88;;;14.80;99.90;;;14.83;89.72;100434.78;4951766;28;20216;-62
2022/05/26 03:05:05;;;;;;;556.00;529.83;;;14.80;99.90;;;14.81;90.32;100444.56;4983875;28;20204;-62
2022/05/26 03:07:35;;;;;;;557.17;530.22;;;14.70;99.90;;;14.67;90.81;100442.00;4955566;28;20224;-62
2022/05/26 03:10:07;;;;;;;539.90;514.58;;;14.70;99.90;;;14.68;90.72;100456.19;4969179;28;20231;-62
2022/05/26 03:12:36;;;;;;;540.55;514.25;;;14.70;99.90;;;14.62;91.33;100454.47;4958964;28;20209;-62
2022/05/26 03:15:07;;;;;;;534.63;509.48;;;14.60;99.90;;;14.53;91.91;100461.63;4953991;28;20217;-62
2022/05/26 03:17:36;;;;;;;543.45;516.72;;;14.50;99.90;;;14.53;92.47;100478.47;4985800;28;20204;-62
2022/05/26 03:20:05;;;;;;;569.22;541.63;;;14.50;99.90;;;14.35;93.29;100482.09;4969545;28;20232;-62
2022/05/26 03:22:33;;;;;;;527.63;503.08;;;14.40;99.90;;;14.39;93.21;100482.97;4994872;28;20223;-62
2022/05/26 03:25:01;;;;;;;549.65;524.05;;;14.40;99.90;;;14.35;93.73;100490.09;4987609;28;20212;-62
2022/05/26 03:27:28;;;;;;;509.55;486.52;;;14.40;99.90;;;14.35;93.79;100511.38;4960607;28;20228;-62
2022/05/26 03:29:57;;;;;;;552.58;526.95;;;14.30;99.90;;;14.18;95.66;100515.84;4972632;28;20247;-62
2022/05/26 03:32:25;;;;;;;525.85;501.83;;;14.30;99.90;;;14.06;96.73;100518.56;4940464;28;20213;-62
2022/05/26 03:43:15;;;;;;;561.75;533.28;;;14.00;99.90;;;13.92;98.98;100554.94;4964699;28;20205;-62
2022/05/26 03:45:44;;;;;;;546.10;519.30;;;14.00;99.90;;;13.92;99.16;100576.22;4990800;28;20223;-62
2022/05/26 03:48:12;;;;;;;515.17;491.13;;;14.00;99.90;;;14.03;98.71;100593.91;4938774;28;20210;-62
2022/05/26 03:50:40;;;;;;;502.77;479.73;;;14.00;99.90;;;13.95;99.55;100592.16;4971646;28;20240;-62
2022/05/26 03:53:08;;;;;;;496.20;472.98;;;13.90;99.90;;;14.02;99.87;100620.50;4952983;28;20240;-62
2022/05/26 03:55:36;;;;;;;514.92;490.63;;;13.90;99.90;;;14.07;99.40;100624.03;4942093;28;20224;-62
2022/05/26 03:58:05;;;;;;;521.50;496.33;;;13.90;99.90;;;14.11;100.00;100628.47;4959052;28;20204;-62
2022/05/26 04:00:34;;;;;;;548.20;521.67;;;13.90;99.90;;;14.16;99.66;100639.09;4952828;28;20623;-62
2022/05/26 04:03:02;;;;;;;546.60;520.47;;;14.00;99.90;;;14.18;99.24;100642.63;4950048;28;20203;-62
2022/05/26 04:05:30;;;;;;;534.97;509.83;;;14.00;99.90;;;14.16;100.00;100649.75;4953475;28;20204;-63
2022/05/26 04:07:58;;;;;;;533.72;508.30;;;14.00;99.90;;;14.13;100.00;100666.59;4986168;28;20254;-62
2022/05/26 04:10:26;;;;;;;515.88;491.63;;;14.10;99.90;;;14.17;100.00;100679.00;4956392;28;20251;-63
2022/05/26 04:12:55;;;;;;;548.05;521.25;;;14.10;99.90;;;14.21;100.00;100688.75;4955140;28;20209;-63
2022/05/26 04:15:24;;;;;;;538.90;512.92;;;14.10;99.90;;;14.19;100.00;100697.59;4952924;28;20224;-62
2022/05/26 04:17:52;;;;;;;539.80;513.67;;;14.20;99.90;;;14.21;100.00;100711.78;4966102;28;20216;-62
2022/05/26 04:20:22;;;;;;;538.92;512.78;;;14.20;99.90;;;14.20;100.00;100713.56;4970893;28;20228;-63
2022/05/26 04:22:50;;;;;;;550.00;523.25;;;14.20;99.90;;;14.24;100.00;100717.09;4952136;28;20220;-63
2022/05/26 04:25:20;;;;;;;535.85;509.27;;;14.20;99.90;;;14.27;100.00;100727.75;4978761;28;20220;-62
2022/05/26 04:27:48;;;;;;;514.83;488.80;;;14.20;99.90;;;14.37;100.00;100740.19;4964115;28;20219;-63
2022/05/26 04:30:16;;;;;;;522.30;497.23;;;14.20;99.90;;;14.47;100.00;100749.94;4931171;28;20228;-63
2022/05/26 04:32:44;;;;;;;553.85;526.00;;;14.30;99.90;;;14.52;100.00;100753.47;4948343;28;20219;-63
2022/05/26 04:35:12;;;;;;;548.53;520.35;;;14.30;99.90;;;14.67;100.00;100761.44;4934268;28;20225;-62
2022/05/26 04:37:41;;;;;;;544.67;516.75;;;14.30;99.90;;;14.81;99.58;100763.16;4975835;28;20213;-62
2022/05/26 04:40:11;;;;;;;527.88;501.52;;;14.40;99.90;;;14.82;99.03;100759.63;4935623;28;20629;-63
2022/05/26 04:42:40;;;;;;;522.88;496.77;;;14.50;99.90;;;14.89;98.86;100764.03;4963283;28;20208;-62
2022/05/26 04:45:11;;;;;;;529.92;504.35;;;14.50;99.90;;;14.94;99.22;100768.44;4980875;28;20209;-62
2022/05/26 04:47:39;;;;;;;517.63;492.92;;;14.50;99.90;;;14.96;98.90;100771.09;4963311;28;20210;-62
2022/05/26 04:50:08;;;;;;;540.97;514.97;;;14.60;99.90;;;14.93;98.79;100761.34;4965850;28;20232;-62
2022/05/26 04:52:36;;;;;;;537.63;511.98;;;14.60;99.90;;;14.94;99.13;100768.44;4996247;28;20227;-63
2022/05/26 04:55:06;;;;;;;542.35;515.42;;;14.70;99.90;;;14.96;98.60;100779.09;4984950;28;20208;-62
2022/05/26 04:57:34;;;;;;;535.47;509.98;;;14.60;99.90;;;14.93;99.02;100781.78;4939354;28;20211;-63
2022/05/26 05:00:06;;;;;;;531.15;504.17;;;14.70;99.90;;;14.93;98.88;100790.66;4933321;28;20719;-62
2022/05/26 05:02:34;;;;;;;519.67;495.65;;;14.70;99.90;;;14.96;98.94;100793.31;4951911;28;20208;-63
2022/05/26 05:05:04;;;;;;;534.75;509.05;;;14.70;99.90;;;15.01;98.45;100798.63;4954748;28;20213;-62
2022/05/26 05:07:33;;;;;;;541.58;514.40;;;14.70;99.90;;;15.04;98.29;100798.59;4964917;28;20664;-62
2022/05/26 05:10:01;;;;;;;510.60;486.88;;;14.70;99.90;;;15.05;98.71;100811.03;4932232;28;20233;-62
2022/05/26 05:12:30;;;;;;;519.55;495.00;;;14.70;99.90;;;15.13;98.44;100819.00;4970368;28;20204;-62
2022/05/26 05:14:58;;;;;;;519.85;494.95;;;14.80;99.90;;;15.12;99.34;100830.53;4949269;28;20215;-62
2022/05/26 05:17:26;;;;;;;545.25;515.97;;;14.80;99.90;;;15.19;98.81;100838.50;4934566;28;20212;-62
2022/05/26 05:19:54;;;;;;;547.47;518.20;;;14.90;99.90;;;15.23;98.89;100858.03;4963690;28;20233;-62
2022/05/26 05:22:41;;;;;;;527.10;502.05;;;14.90;99.90;;;15.28;98.93;100858.91;4945732;28;20416;-62
2022/05/26 05:25:21;;;;;;;506.38;482.90;;;14.90;99.90;;;15.44;98.63;100881.94;4994796;28;20215;-62
2022/05/26 05:27:58;;;;;;;503.50;481.20;;;15.00;99.90;;;15.43;97.82;100874.84;4979914;28;20243;-62
2022/05/26 05:30:42;;;;;;;518.60;494.25;;;15.10;99.90;;;15.52;98.12;100880.13;4967508;28;20224;-62
2022/05/26 05:33:23;;;;;;;552.67;522.70;;;15.10;99.90;;;15.65;97.98;100891.69;4930667;28;20208;-62
2022/05/26 05:36:02;;;;;;;542.85;515.45;;;15.20;99.90;;;15.85;97.38;100919.16;4950397;28;20224;-62
2022/05/26 05:38:33;;;;;;;562.00;535.05;;;15.30;99.90;;;15.96;96.93;100906.66;4960088;28;20205;-63
2022/05/26 05:41:08;;;;;;;536.42;510.38;;;15.40;99.90;;;16.02;95.70;100896.84;4976809;28;20237;-64
2022/05/26 05:43:37;;;;;;;522.78;498.88;;;15.50;99.90;;;15.91;95.31;100881.78;4980716;28;20208;-62
2022/05/26 05:46:06;;;;;;;535.47;510.88;;;15.50;99.90;;;15.93;97.03;100898.66;4954199;28;20219;-62
2022/05/26 05:48:38;;;;;;;536.33;511.73;;;15.60;99.90;;;15.90;96.23;100887.13;4946030;28;20229;-61
2022/05/26 05:51:06;;;;;;;550.65;525.50;;;15.50;99.90;;;15.89;96.84;100880.91;4973433;28;20617;-62
2022/05/26 05:53:34;;;;;;;539.15;514.10;;;15.60;99.90;;;15.96;95.89;100882.66;4929009;28;20221;-62
2022/05/26 05:56:02;;;;;;;529.38;505.65;;;15.60;99.90;;;15.95;96.00;100891.53;4993381;28;20216;-62
2022/05/26 05:58:30;;;;;;;576.80;547.97;;;15.60;99.90;;;16.18;95.05;100912.75;4970378;28;20202;-62
2022/05/26 06:00:58;;;;;;;567.53;538.85;;;15.60;99.90;;;16.26;95.46;100918.91;4994473;28;20248;-62
2022/05/26 06:03:32;;;;;;;564.65;535.95;;;15.70;99.90;;;16.23;96.78;100926.94;4989209;28;20209;-62
2022/05/26 06:06:07;;;;;;;582.20;552.25;;;15.80;99.90;;;16.29;96.09;100921.56;4984204;28;20219;-62
2022/05/26 06:08:35;;;;;;;593.78;563.70;;;15.80;99.90;;;16.41;95.23;100933.94;4928383;28;20223;-62
2022/05/26 06:11:03;;;;;;;577.47;548.10;;;15.90;99.90;;;16.40;94.88;100926.84;4945507;28;20228;-62
2022/05/26 06:13:31;;;;;;;604.95;573.95;;;16.00;99.90;;;16.51;94.66;100934.75;4951074;28;20209;-62
2022/05/26 06:15:59;;;;;;;627.40;596.53;;;16.00;99.90;;;16.62;94.47;100939.13;4950489;28;20306;-62
2022/05/26 06:18:27;;;;;;;645.28;609.42;;;16.20;99.90;;;16.75;94.38;100955.97;4948519;28;20216;-62
2022/05/26 06:21:04;;;;;;;632.70;600.25;;;16.30;99.90;;;16.77;93.54;100935.47;4931631;28;20239;-63
2022/05/26 06:23:32;;;;;;;646.70;612.30;;;16.30;99.90;;;16.77;93.92;100939.94;4969516;28;20271;-61
2022/05/26 06:26:00;;;;;;;618.25;585.58;;;16.40;99.90;;;16.86;94.11;100942.53;4973809;28;20682;-62
2022/05/26 06:31:20;;;;;;;660.30;624.10;;;16.50;99.90;;;16.89;93.43;100945.19;4958125;28;20236;-63
2022/05/26 06:39:24;;;;;;;586.13;555.22;;;16.70;99.90;;;17.06;92.72;100951.28;4956006;28;20205;-63
2022/05/26 06:42:06;;;;;;;595.45;562.90;;;16.70;99.90;;;17.03;92.94;100951.31;4977920;28;20209;-63
2022/05/26 06:44:42;;;;;;;604.15;570.35;;;16.80;99.90;;;17.03;92.85;100948.66;4942824;28;20586;-63
2022/05/26 06:47:18;;;;;;;592.00;560.17;;;16.80;99.90;;;17.10;92.11;100945.00;4924573;28;20216;-62
2022/05/26 06:49:47;;;;;;;590.83;560.38;;;16.90;99.90;;;17.21;92.66;100955.59;4926480;28;20236;-63
2022/05/26 06:52:18;;;;;;;586.10;555.95;;;16.90;99.90;;;17.16;92.19;100955.66;4992456;28;20216;-63
2022/05/26 06:54:47;;;;;;;602.85;571.95;;;17.00;99.90;;;17.25;92.91;100957.34;4945530;28;20213;-63
2022/05/26 06:57:16;;;;;;;617.80;584.03;;;17.10;99.90;;;17.30;92.65;100971.53;4936536;28;20225;-63
2022/05/26 06:59:44;;;;;;;631.10;597.58;;;17.10;99.90;;;17.48;93.30;100991.88;4973048;28;20220;-63
2022/05/26 07:02:13;;;;;;;658.28;621.28;;;17.20;99.90;;;17.51;92.01;100981.13;4973831;28;20212;-63
2022/05/26 07:04:43;;;;;;;651.40;618.58;;;17.20;99.90;;;17.29;91.72;100956.41;4943084;28;20202;-63
2022/05/26 07:07:15;;;;;;;651.42;617.10;;;17.30;99.90;;;17.45;92.41;100968.72;4960068;28;20223;-63
2022/05/26 07:09:43;;;;;;;637.47;604.13;;;17.30;99.90;;;17.65;91.83;100984.53;4958565;28;20237;-63
2022/05/26 07:12:12;;;;;;;661.55;625.72;;;17.40;99.90;;;17.75;90.52;100988.03;4972000;28;20212;-63
2022/05/26 07:14:40;;;;;;;632.50;598.85;;;17.50;99.90;;;17.65;89.76;100959.59;4945714;28;20228;-63
2022/05/26 07:17:08;;;;;;;663.53;628.05;;;17.50;99.90;;;17.81;89.96;100962.09;4944694;28;20232;-63
2022/05/26 07:19:38;;;;;;;659.20;624.97;;;17.60;99.90;;;17.80;89.82;100970.13;4943400;28;20245;-64
2022/05/26 07:22:06;;;;;;;635.35;602.67;;;17.70;99.90;;;17.76;89.50;100963.06;4929292;28;20209;-63
2022/05/26 07:24:34;;;;;;;638.63;605.33;;;17.70;99.90;;;17.57;90.15;100959.66;4940061;28;20213;-63
2022/05/26 07:27:02;;;;;;;630.03;597.00;;;17.70;99.90;;;17.59;89.40;100939.16;4971690;28;20719;-63
2022/05/26 07:29:30;;;;;;;605.13;573.65;;;17.60;99.90;;;17.75;89.53;100954.13;4961900;28;20233;-63
2022/05/26 07:32:00;;;;;;;585.55;553.95;;;18.30;99.90;;;18.06;90.66;100989.44;4977692;28;20219;-63
2022/05/26 07:34:29;;;;;;;578.08;550.05;;;17.90;99.90;;;18.16;89.71;100988.41;4927662;28;20201;-63
2022/05/26 07:42:34;;;;;;;580.08;550.72;;;18.20;99.90;;;18.17;88.55;100952.69;4990710;28;20212;-63
2022/05/26 07:45:07;;;;;;;606.38;574.40;;;18.30;99.90;;;18.41;88.46;100967.56;4987530;28;20200;-63
2022/05/26 07:47:37;;;;;;;627.50;593.33;;;18.30;99.90;;;18.37;87.30;100947.09;4942426;28;20211;-63
2022/05/26 07:50:10;;;;;;;646.45;612.40;;;18.40;99.90;;;18.32;87.77;100935.56;4930611;28;20236;-63
2022/05/26 07:52:38;;;;;;;681.78;645.58;;;18.40;99.90;;;18.55;88.08;100965.56;4953378;28;20223;-63
2022/05/26 07:55:07;;;;;;;690.15;653.83;;;18.50;99.90;;;18.81;88.44;100977.69;4961414;28;20200;-63
2022/05/26 07:57:36;;;;;;;742.80;704.38;;;;;;;18.68;87.00;100958.25;4975521;28;20228;-63
2022/05/26 08:00:08;;;;;;;852.53;804.97;;;18.70;99.90;;;18.59;86.68;100941.41;4946418;28;20740;-63
2022/05/26 08:02:40;;;;;;;865.20;817.65;;;18.70;99.90;;;18.68;86.02;100943.97;4959590;28;20212;-63
2022/05/26 08:05:10;;;;;;;887.85;837.00;;;18.70;99.90;;;18.65;86.88;100933.31;4983961;28;20221;-63
2022/05/26 08:07:39;;;;;;;755.42;714.15;;;18.90;99.90;;;19.01;87.07;100969.31;4969892;28;20209;-63
2022/05/26 08:10:08;;;;;;;801.45;758.20;;;19.00;99.90;;;19.09;85.43;100960.22;4954220;28;20790;-63
2022/05/26 08:12:36;;;;;;;756.92;715.63;;;19.10;99.90;;;19.09;86.20;100957.56;4983946;28;20216;-63
2022/05/26 08:15:05;;;;;;;758.50;716.80;;;19.20;99.90;;;19.10;85.46;100947.72;4939682;28;20661;-63
2022/05/26 08:17:33;;;;;;;836.00;789.70;;;19.10;99.90;;;18.97;85.61;100932.75;4989730;28;20228;-63
2022/05/26 08:20:01;;;;;;;823.90;777.92;;;19.20;99.90;;;18.94;86.70;100941.75;4956199;28;20228;-63
2022/05/26 08:22:29;;;;;;;808.75;763.25;;;;;;;19.02;85.28;100942.50;4969284;28;20209;-63
2022/05/26 08:24:58;;;;;;;803.03;757.67;;;19.20;99.90;;;19.01;85.90;100934.47;4966778;28;20235;-63
2022/05/26 08:27:27;;;;;;;793.40;749.08;;;19.20;99.90;;;18.89;85.62;100923.97;4946068;28;20200;-63
2022/05/26 08:29:56;;;;;;;746.53;705.58;;;19.10;99.90;;;18.85;84.84;100912.41;4960730;28;21207;-63
2022/05/26 08:32:26;;;;;;;678.95;643.35;;;19.20;99.90;;;19.07;84.70;100926.31;4977144;28;20679;-63
2022/05/26 08:35:05;;;;;;;656.60;619.25;;;19.40;99.90;;;19.26;84.69;100951.88;4946535;28;20903;-63
2022/05/26 08:37:34;;;;;;;651.35;616.78;;;19.40;99.90;;;19.18;85.23;100946.66;4943820;28;20232;-63
2022/05/26 08:40:04;;;;;;;669.30;632.83;;;19.50;99.90;;;19.10;83.61;100912.88;4944142;28;20262;-63
2022/05/26 08:42:35;;;;;;;643.25;607.60;;;19.50;99.90;;;18.95;83.66;100905.97;4980084;28;20220;-63
2022/05/26 08:45:10;;;;;;;635.38;600.88;;;19.40;99.90;;;19.06;83.98;100914.72;4978361;28;20212;-63
2022/05/26 08:47:48;;;;;;;674.20;637.15;;;19.40;99.90;;;18.98;83.60;100897.88;4974813;28;20477;-63
2022/05/26 08:50:21;;;;;;;697.47;659.15;;;19.40;99.90;;;19.09;83.18;100906.63;4927256;28;20246;-63
2022/05/26 08:53:27;;;;;;;642.67;608.83;;;19.40;99.90;;;19.24;84.48;100929.56;4974532;28;20223;-63
2022/05/26 08:55:56;;;;;;;561.00;532.45;;;19.40;99.90;;;19.17;82.64;100903.78;4921059;28;20204;-64
2022/05/26 08:58:39;;;;;;;643.95;608.47;;;19.30;99.90;;;19.27;83.50;100924.16;4962947;28;20233;-62
2022/05/26 09:01:11;;;;;;;650.13;615.83;;;19.50;99.90;;;19.54;84.00;100946.06;4991002;28;20239;-63
2022/05/26 09:03:39;;;;;;;669.40;633.03;;;19.50;99.90;;;19.15;82.95;100890.41;4941358;28;20212;-63
2022/05/26 09:06:18;;;;;;;650.25;615.35;;;19.40;99.90;;;19.23;82.92;100909.03;4963843;28;20208;-63
2022/05/26 09:14:44;;;;;;;721.97;683.22;;;19.40;99.90;;;19.16;83.69;100919.00;4950840;28;20216;-63
2022/05/26 09:17:14;;;;;;;711.97;673.33;;;19.50;99.90;;;19.36;82.65;100923.09;4926554;28;20235;-64
2022/05/26 09:19:42;;;;;;;687.45;649.92;;;19.50;99.90;;;19.31;82.88;100909.78;4960834;28;20585;-64
2022/05/26 09:22:39;;;;;;;650.92;615.38;;;19.70;99.90;;;19.61;82.53;100929.81;4974696;28;20216;-63
2022/05/26 09:25:35;;;;;;;659.70;621.85;;;19.70;99.90;;;19.44;81.77;100911.31;4942953;28;20223;-63
2022/05/26 09:28:05;;;;;;;639.72;604.33;;;19.80;99.90;;;19.36;82.39;100905.22;4964117;28;20204;-63
2022/05/26 09:30:34;;;;;;;633.72;598.65;;;19.70;99.90;;;19.53;82.62;100922.84;4958997;28;20232;-63
2022/05/26 09:33:17;;;;;;;584.15;552.20;;;19.70;99.90;;;19.58;82.45;100919.16;4948045;28;20227;-63
2022/05/26 09:35:46;;;;;;;572.55;540.47;;;19.80;99.90;;;19.49;81.65;100912.09;4983189;28;20212;-63
2022/05/26 09:38:19;;;;;;;572.50;541.20;;;19.80;99.90;;;19.56;81.43;100909.34;4947525;28;20228;-63
2022/05/26 09:40:48;;;;;;;589.17;557.90;;;19.90;99.90;;;19.50;80.82;100897.81;4918508;28;20240;-64
2022/05/26 09:43:16;;;;;;;619.72;584.65;;;19.80;99.90;;;19.71;81.71;100919.78;4962875;28;20220;-64
2022/05/26 09:45:47;;;;;;;634.00;598.72;;;19.90;99.90;;;20.10;82.96;100955.63;4994616;28;20212;-64
2022/05/26 09:48:30;;;;;;;609.90;576.03;;;20.10;99.90;;;20.02;82.24;100931.63;4991034;28;20204;-64
2022/05/26 09:51:30;;;;;;;599.03;565.10;;;20.20;99.90;;;19.80;80.56;100893.63;4949136;28;20235;-63
2022/05/26 09:53:58;;;;;;;624.60;590.28;;;20.20;99.90;;;19.98;80.19;100896.81;4976023;28;20216;-64
2022/05/26 09:56:47;;;;;;;636.17;601.08;;;20.20;99.90;;;19.90;80.44;100893.44;4947866;28;20216;-63
2022/05/26 09:59:33;;;;;;;628.30;592.38;;;20.30;99.90;;;20.01;80.06;100892.28;4979170;28;20224;-63
2022/05/26 10:02:19;;;;;;;656.58;619.25;;;20.30;99.90;;;20.43;79.21;100911.91;4946572;28;20220;-63
2022/05/26 10:05:22;;;;;;;646.22;609.75;;;20.50;99.90;;;20.48;78.01;100884.06;4985677;28;20225;-63
2022/05/26 10:07:51;;;;;;;662.75;626.10;;;20.50;99.90;;;20.36;77.12;100855.66;4942998;28;20208;-63
2022/05/26 10:10:55;;;;;;;680.45;641.70;;;20.60;99.90;;;20.49;77.60;100849.09;4993148;28;20227;-64
2022/05/26 10:13:51;;;;;;;721.22;682.53;;;20.80;99.90;;;20.61;77.40;100854.16;4973420;28;20554;-64
2022/05/26 10:16:30;;;;;;;850.20;802.22;;;20.90;99.90;;;20.50;74.33;100799.78;4978922;28;20208;-63
2022/05/26 10:19:11;;;;;;;754.88;712.25;;;21.00;99.90;;;20.86;74.48;100807.84;4947642;28;20230;-63
2022/05/26 10:22:18;;;;;;;745.03;702.72;;;20.90;99.90;;;20.53;76.03;100796.16;4961327;28;20672;-63
2022/05/26 10:25:04;;;;;;;682.47;643.50;;;20.90;99.90;;;20.39;74.73;100753.53;4998472;28;20215;-63
2022/05/26 10:28:10;;;;;;;667.47;628.33;;;20.80;99.90;;;20.32;75.13;100744.72;4976945;28;20219;-63
2022/05/26 10:31:07;;;;;;;669.42;631.15;;;20.80;99.90;;;20.53;74.87;100761.22;4991441;28;20232;-63
2022/05/26 10:33:59;;;;;;;694.80;654.95;;;20.90;99.90;;;20.40;75.33;100756.19;4958904;28;20293;-64
2022/05/26 10:37:07;;;;;;;711.30;671.05;;;20.90;99.90;;;20.11;74.31;100705.88;4975689;28;20212;-63
2022/05/26 10:39:57;;;;;;;684.60;645.13;;;20.60;99.90;;;20.08;75.03;100710.44;4957266;28;20235;-63
2022/05/26 10:42:30;;;;;;;694.40;655.35;;;20.60;99.90;;;20.23;75.07;100734.22;4990143;28;20660;-63
2022/05/26 10:45:30;;;;;;;610.38;578.22;;;20.60;99.90;;;20.21;74.97;100730.69;4941432;28;20208;-63
2022/05/26 10:48:07;;;;;;;685.33;646.58;;;20.60;99.90;;;20.11;72.06;100673.66;4943606;28;20209;-63
2022/05/26 10:50:44;;;;;;;691.38;653.97;;;20.30;99.90;;;19.73;71.87;100618.28;4972713;28;20745;-63
2022/05/26 10:53:26;;;;;;;692.60;653.40;;;20.30;99.90;;;19.85;72.92;100649.28;4960277;28;20219;-63